Terminal Aerodrome Forecast
Issued by NWS

Current Version | Previous Version | Text Only | Print | Product List | Glossary On
Versions: 1 2 3 4 5 6 7 8 9 10 11 12 13 14 15 16 17 18
000
FTUS44 KMOB 181548 AAB
TAFBFM
TAF AMD
KBFM 181548Z 1816/1912 35003KT 3SM -RA BR BKN002 OVC011
     FM181800 VRB03KT 5SM BR VCSH OVC004
     FM190300 VRB03KT 1/2SM FG OVC003=

USA.gov is the U.S. government's official web portal to all federal, state and local government web resources and services.